Time;durP1;ratioP1;P1;durP2;ratioP2;P2;SDS_P1;SDS_P2;PMS_P1;PMS_P2;Temp;Humidity;BMP_temperature;BMP_pressure;BME280_temperature;BME280_humidity;BME280_pressure;Samples;Min_cycle;Max_cycle;Signal;HPM_P1;HPM_P2
2022/06/18 00:01:43;;;;;;;9.35;2.97;;;;;;;21.28;55.52;100263.53;5013873;28;20062;-55
2022/06/18 00:04:27;;;;;;;12.27;2.75;;;;;;;21.28;55.50;100269.66;5013857;28;20048;-55
2022/06/18 00:07:16;;;;;;;4.82;2.50;;;;;;;21.27;55.31;100264.44;5013816;28;20108;-55
2022/06/18 00:10:03;;;;;;;7.30;3.17;;;;;;;21.28;55.39;100268.81;5013485;28;20049;-57
2022/06/18 00:15:51;;;;;;;7.70;2.75;;;;;;;21.26;55.41;100260.06;5014104;28;20061;-57
2022/06/18 00:18:35;;;;;;;5.75;2.63;;;;;;;21.25;55.32;100259.22;5013253;28;20052;-57
2022/06/18 00:21:22;;;;;;;8.18;2.65;;;;;;;21.25;55.13;100255.72;5013402;28;20045;-55
2022/06/18 00:24:14;;;;;;;5.82;2.90;;;;;;;21.22;55.34;100251.38;5012869;28;20132;-57
2022/06/18 00:26:58;;;;;;;7.18;3.40;;;;;;;21.22;55.57;100250.50;5013130;28;20099;-55
2022/06/18 00:29:43;;;;;;;6.82;3.40;;;;;;;21.22;55.40;100255.78;5014067;28;20045;-55
2022/06/18 00:32:27;;;;;;;6.65;3.15;;;;;;;21.21;55.62;100251.41;5013362;28;20174;-56
2022/06/18 00:35:12;;;;;;;9.10;3.08;;;;;;;21.19;55.63;100253.22;5013504;28;20111;-55
2022/06/18 00:37:58;;;;;;;11.30;3.10;;;;;;;21.19;55.47;100250.56;5013923;28;20049;-56
2022/06/18 00:40:43;;;;;;;10.90;2.90;;;;;;;21.20;55.37;100245.28;5012841;28;20045;-55
2022/06/18 00:43:35;;;;;;;6.82;2.75;;;;;;;21.20;55.56;100249.69;5012646;28;20458;-56
2022/06/18 00:46:31;;;;;;;6.55;3.00;;;;;;;21.18;55.40;100249.72;5012218;28;20045;-56
2022/06/18 00:49:23;;;;;;;4.80;2.60;;;;;;;21.18;55.44;100244.47;5012854;28;20527;-57
2022/06/18 00:52:28;;;;;;;8.48;2.90;;;;;;;21.17;55.47;100245.34;5013044;28;20516;-57
2022/06/18 00:55:26;;;;;;;3.42;2.20;;;;;;;21.17;55.37;100253.25;5012873;28;20520;-57
2022/06/18 00:58:21;;;;;;;9.55;2.40;;;;;;;21.16;55.38;100250.69;5012993;28;20104;-56
2022/06/18 01:01:14;;;;;;;6.95;2.90;;;;;;;21.16;55.52;100250.69;5012514;28;20052;-57
2022/06/18 01:03:58;;;;;;;14.52;3.08;;;;;;;21.15;55.55;100255.06;5013759;28;20516;-57
2022/06/18 01:06:42;;;;;;;7.30;2.72;;;;;;;21.14;55.48;100253.34;5013940;28;20049;-57
2022/06/18 01:09:27;;;;;;;5.70;2.70;;;;;;;21.13;55.55;100243.69;5012415;28;20053;-57
2022/06/18 01:12:11;;;;;;;7.15;2.42;;;;;;;21.13;55.43;100248.97;5012812;28;20106;-57
2022/06/18 01:15:03;;;;;;;5.78;2.40;;;;;;;21.12;55.58;100245.47;5013558;28;20056;-56
2022/06/18 01:17:51;;;;;;;4.50;3.17;;;;;;;21.11;55.62;100250.75;5012306;28;20096;-55
2022/06/18 01:20:49;;;;;;;7.32;2.10;;;;;;;21.10;55.69;100251.66;5012740;28;20100;-57
2022/06/18 01:23:40;;;;;;;5.47;2.42;;;;;;;21.09;55.77;100260.50;5012450;28;20045;-57
2022/06/18 01:26:24;;;;;;;8.73;2.83;;;;;;;21.08;55.76;100251.72;5012222;28;20417;-57
2022/06/18 01:29:08;;;;;;;5.43;2.40;;;;;;;21.08;55.84;100256.13;5013281;28;20121;-56
2022/06/18 01:31:52;;;;;;;5.13;2.22;;;;;;;21.08;55.72;100248.22;5013023;28;20060;-56
2022/06/18 01:34:37;;;;;;;4.47;2.55;;;;;;;21.08;55.91;100245.59;5013328;28;20052;-56
2022/06/18 01:37:20;;;;;;;9.02;2.80;;;;;;;21.06;55.98;100242.97;5012621;28;20108;-55
2022/06/18 01:40:07;;;;;;;3.78;2.33;;;;;;;21.06;56.07;100239.50;5013503;28;20084;-55
2022/06/18 01:42:57;;;;;;;5.13;2.75;;;;;;;21.06;56.02;100236.84;5013419;28;20177;-56
2022/06/18 01:45:45;;;;;;;5.45;3.00;;;;;;;21.05;56.03;100237.75;5013920;28;20056;-56
2022/06/18 01:48:34;;;;;;;7.38;2.60;;;;;;;21.04;56.14;100233.41;5015970;28;20049;-56
2022/06/18 01:51:29;;;;;;;5.80;2.55;;;;;;;21.02;55.89;100238.69;5016091;28;20053;-56
2022/06/18 01:54:24;;;;;;;4.53;2.63;;;;;;;21.01;55.94;100236.97;5015883;28;20053;-56
2022/06/18 01:57:17;;;;;;;5.63;2.55;;;;;;;21.01;56.06;100230.81;5015903;28;20139;-56
2022/06/18 02:00:08;;;;;;;3.72;2.10;;;;;;;21.00;55.99;100227.34;5016276;28;20065;-56
2022/06/18 02:02:54;;;;;;;5.43;2.45;;;;;;;20.98;56.17;100227.34;5014988;28;20057;-55
2022/06/18 02:05:38;;;;;;;7.25;2.70;;;;;;;20.98;56.10;100237.03;5015959;28;20132;-56
2022/06/18 02:08:22;;;;;;;10.98;3.05;;;;;;;20.97;56.23;100225.63;5016928;28;20533;-56
2022/06/18 02:11:07;;;;;;;;;;;;;;;20.95;56.03;100229.22;5016785;28;20515;-56
2022/06/18 02:14:03;;;;;;;;;;;;;;;20.92;56.29;100226.66;5016482;28;19919;-56
2022/06/18 02:16:48;;;;;;;6.22;2.80;;;;;;;20.90;56.44;100218.78;5016155;28;19924;-56
2022/06/18 02:19:35;;;;;;;4.00;2.30;;;;;;;20.91;56.28;100219.63;5016186;28;20461;-57
2022/06/18 02:22:26;;;;;;;6.47;2.83;;;;;;;20.90;56.33;100218.78;5015566;28;20069;-56
2022/06/18 02:25:13;;;;;;;6.53;2.88;;;;;;;20.90;56.12;100217.91;5015282;28;20049;-57
2022/06/18 02:28:28;;;;;;;4.68;3.17;;;;;;;20.88;56.32;100210.06;5015065;28;20049;-56
2022/06/18 02:31:20;;;;;;;4.63;2.83;;;;;;;20.86;56.39;100214.50;5015304;28;20100;-55
2022/06/18 02:34:10;;;;;;;5.40;3.10;;;;;;;20.87;56.18;100213.59;5014971;28;20081;-55
2022/06/18 02:36:55;;;;;;;7.25;3.67;;;;;;;20.86;56.64;100211.84;5015051;28;20044;-56
2022/06/18 02:39:53;;;;;;;7.47;3.13;;;;;;;20.87;56.21;100218.84;5014706;28;20049;-56
2022/06/18 02:42:37;;;;;;;4.60;3.15;;;;;;;20.85;56.86;100212.75;5015094;28;20061;-57
2022/06/18 02:45:24;;;;;;;6.25;3.08;;;;;;;20.85;56.58;100215.41;5014851;28;20048;-56
2022/06/18 02:48:09;;;;;;;8.27;3.08;;;;;;;20.82;56.29;100211.06;5015556;28;20464;-56
2022/06/18 02:50:57;;;;;;;10.45;4.28;;;;;;;20.84;56.50;100214.53;5015797;28;20070;-55
2022/06/18 02:53:41;;;;;;;6.43;3.33;;;;;;;20.84;56.50;100216.28;5014660;28;20056;-55
2022/06/18 02:56:25;;;;;;;7.53;3.45;;;;;;;20.82;56.35;100215.47;5013823;28;20096;-56
2022/06/18 02:59:09;;;;;;;6.82;3.15;;;;;;;20.82;56.65;100212.81;5015649;28;20060;-56
2022/06/18 03:01:53;;;;;;;9.02;3.72;;;;;;;20.80;56.57;100209.34;5015708;28;20124;-56
2022/06/18 03:04:37;;;;;;;8.32;3.50;;;;;;;20.80;56.28;100199.72;5014879;28;20095;-57
2022/06/18 03:07:21;;;;;;;8.43;3.58;;;;;;;20.79;56.63;100205.88;5014359;28;20133;-57
2022/06/18 03:13:09;;;;;;;11.50;4.28;;;;;;;20.78;56.57;100203.28;5014976;28;20107;-57
2022/06/18 03:15:55;;;;;;;9.70;4.15;;;;;;;20.79;56.73;100205.00;5015560;28;20533;-57
2022/06/18 03:18:41;;;;;;;13.23;4.72;;;;;;;20.78;56.66;100208.56;5014808;28;20084;-56
2022/06/18 03:21:31;;;;;;;11.95;4.47;;;;;;;20.76;56.53;100198.03;5013852;28;20563;-57
2022/06/18 03:24:15;;;;;;;9.68;4.35;;;;;;;20.76;56.59;100202.47;5014937;28;20045;-57
2022/06/18 03:26:59;;;;;;;12.23;4.70;;;;;;;20.76;56.61;100197.19;5014996;28;20052;-57
2022/06/18 03:29:44;;;;;;;13.30;4.38;;;;;;;20.76;56.39;100197.19;5014722;28;20052;-57
2022/06/18 03:32:27;;;;;;;10.52;4.25;;;;;;;20.77;56.67;100191.88;5014602;28;20115;-57
2022/06/18 03:35:11;;;;;;;13.32;4.30;;;;;;;20.77;56.62;100189.25;5014765;28;20108;-57
2022/06/18 03:37:55;;;;;;;9.13;4.15;;;;;;;20.78;56.63;100198.03;5014369;28;20056;-60
2022/06/18 03:40:39;;;;;;;6.88;3.58;;;;;;;20.77;56.68;100199.78;5014796;28;20512;-57
2022/06/18 03:43:26;;;;;;;10.40;3.88;;;;;;;20.78;56.59;100195.38;5014748;28;20563;-56
2022/06/18 03:46:13;;;;;;;9.15;3.40;;;;;;;20.77;56.75;100194.50;5013602;28;20045;-56
2022/06/18 03:49:01;;;;;;;9.27;4.05;;;;;;;20.77;56.61;100193.66;5014106;28;20096;-57
2022/06/18 03:51:45;;;;;;;13.95;5.20;;;;;;;20.77;56.62;100198.94;5014337;28;20173;-56
2022/06/18 03:54:29;;;;;;;10.00;3.95;;;;;;;20.76;56.68;100195.41;5014387;28;20476;-56
2022/06/18 03:57:18;;;;;;;12.07;3.33;;;;;;;20.76;56.81;100202.47;5014080;28;20041;-57
2022/06/18 04:00:05;;;;;;;9.07;3.75;;;;;;;20.75;56.75;100196.31;5014349;28;20053;-56
2022/06/18 04:02:49;;;;;;;6.88;3.28;;;;;;;20.76;56.79;100198.03;5014279;28;20057;-55
2022/06/18 04:05:39;;;;;;;10.48;3.25;;;;;;;20.75;56.60;100195.44;5013966;28;20052;-55
2022/06/18 04:08:23;;;;;;;11.05;3.30;;;;;;;20.75;56.81;100195.44;5012966;28;20401;-56
2022/06/18 04:11:09;;;;;;;5.82;3.13;;;;;;;20.75;56.92;100188.41;5013865;28;20048;-55
2022/06/18 04:13:54;;;;;;;7.82;3.40;;;;;;;20.75;56.80;100187.53;5013816;28;20573;-56
2022/06/18 04:16:38;;;;;;;15.95;3.25;;;;;;;20.74;56.79;100186.63;5013999;28;20125;-56
2022/06/18 04:19:22;;;;;;;7.78;2.90;;;;;;;20.74;56.80;100184.00;5013739;28;20056;-56
2022/06/18 04:22:05;;;;;;;7.85;3.22;;;;;;;20.74;56.79;100181.38;5013630;28;20474;-55
2022/06/18 04:24:49;;;;;;;8.13;2.80;;;;;;;20.75;56.87;100188.41;5013973;28;20045;-57
2022/06/18 04:27:33;;;;;;;10.73;3.25;;;;;;;20.75;56.96;100191.03;5014118;28;20085;-56
2022/06/18 04:30:18;;;;;;;9.48;3.08;;;;;;;20.75;56.82;100188.41;5013247;28;20107;-57
2022/06/18 04:33:03;;;;;;;9.45;3.00;;;;;;;20.75;56.70;100188.41;5013088;28;20632;-57
2022/06/18 04:35:52;;;;;;;5.75;2.85;;;;;;;20.77;56.78;100188.38;5012943;28;20044;-57
2022/06/18 04:38:36;;;;;;;11.73;3.05;;;;;;;20.75;56.89;100184.88;5012652;28;20552;-57
2022/06/18 04:41:20;;;;;;;4.65;2.53;;;;;;;20.76;56.99;100187.50;5013969;28;20478;-55
2022/06/18 04:44:04;;;;;;;6.35;2.70;;;;;;;20.76;56.79;100181.38;5012516;28;20104;-57
2022/06/18 04:46:49;;;;;;;3.67;2.45;;;;;;;20.77;56.81;100191.03;5013852;28;20408;-56
2022/06/18 04:49:33;;;;;;;7.22;2.85;;;;;;;20.76;57.11;100182.25;5013973;28;20100;-57
2022/06/18 04:52:17;;;;;;;9.30;2.70;;;;;;;20.77;57.09;100188.38;5012872;28;20528;-57
2022/06/18 04:55:01;;;;;;;5.35;2.65;;;;;;;20.78;57.11;100184.84;5013061;28;20053;-55
2022/06/18 04:57:45;;;;;;;4.93;2.72;;;;;;;20.77;56.81;100180.50;5013445;28;20053;-57
2022/06/18 05:00:29;;;;;;;5.13;2.67;;;;;;;20.80;56.80;100183.03;5013152;28;20422;-56
2022/06/18 05:03:18;;;;;;;3.88;2.42;;;;;;;20.79;56.89;100174.28;5013481;28;20492;-57
2022/06/18 05:06:02;;;;;;;6.57;2.60;;;;;;;20.81;57.05;100171.59;5012840;28;20100;-56
2022/06/18 05:08:46;;;;;;;4.05;2.53;;;;;;;20.81;56.98;100161.06;5013363;28;20052;-57
2022/06/18 05:11:30;;;;;;;4.43;2.50;;;;;;;20.82;57.07;100161.03;5012536;28;20068;-57
2022/06/18 05:14:16;;;;;;;6.65;2.63;;;;;;;20.84;57.16;100171.53;5013541;28;20096;-57
2022/06/18 05:17:02;;;;;;;6.10;2.95;;;;;;;20.86;57.05;100168.88;5012735;28;20041;-56
2022/06/18 05:19:46;;;;;;;6.82;3.13;;;;;;;20.86;57.11;100167.09;5014373;28;20107;-56
2022/06/18 05:22:30;;;;;;;5.57;2.22;;;;;;;20.88;57.10;100174.94;5016986;28;20048;-58
2022/06/18 05:25:15;;;;;;;8.32;2.40;;;;;;;20.88;56.80;100178.44;5017630;28;20057;-56
2022/06/18 05:27:59;;;;;;;4.45;2.60;;;;;;;20.90;57.17;100181.91;5016606;28;20112;-56
2022/06/18 05:30:43;;;;;;;5.95;2.92;;;;;;;20.90;56.99;100176.66;5017270;28;20072;-56
2022/06/18 05:33:27;;;;;;;7.07;2.60;;;;;;;20.92;57.01;100180.13;5016466;28;20053;-56
2022/06/18 05:36:19;;;;;;;4.00;2.33;;;;;;;20.93;57.20;100173.06;5016160;28;20073;-56
2022/06/18 05:39:05;;;;;;;3.90;2.50;;;;;;;20.94;57.07;100166.91;5016618;28;20049;-56
2022/06/18 05:41:50;;;;;;;4.40;2.90;;;;;;;20.94;57.26;100166.91;5015970;28;20049;-57
2022/06/18 05:44:34;;;;;;;4.57;2.38;;;;;;;20.96;57.02;100159.81;5016848;28;20048;-56
2022/06/18 05:47:24;;;;;;;8.27;2.47;;;;;;;20.96;57.37;100168.56;5015729;28;20138;-56
2022/06/18 05:50:12;;;;;;;8.98;2.72;;;;;;;20.96;57.34;100165.09;5017152;28;20052;-57
2022/06/18 05:52:56;;;;;;;7.07;2.78;;;;;;;20.98;57.39;100171.19;5016729;28;20073;-55
2022/06/18 05:55:40;;;;;;;5.10;2.60;;;;;;;20.99;57.30;100171.13;5016541;28;20552;-56
2022/06/18 05:58:24;;;;;;;5.43;2.47;;;;;;;21.01;57.27;100162.34;5017076;28;20208;-56
2022/06/18 06:01:08;;;;;;;4.13;2.40;;;;;;;21.01;57.35;100160.59;5016558;28;20095;-55
2022/06/18 06:03:52;;;;;;;7.85;2.75;;;;;;;21.02;57.43;100159.66;5015108;28;20065;-56
2022/06/18 06:06:36;;;;;;;5.85;2.45;;;;;;;21.05;57.51;100169.25;5016482;28;20049;-57
2022/06/18 06:12:42;;;;;;;7.18;2.70;;;;;;;21.07;57.72;100159.56;4975653;28;20129;-56
2022/06/18 06:15:25;;;;;;;5.00;2.83;;;;;;;21.09;57.72;100160.38;5016572;28;20052;-56
2022/06/18 06:18:12;;;;;;;6.47;3.20;;;;;;;21.12;57.56;100157.66;5016148;28;20571;-56
2022/06/18 06:20:59;;;;;;;6.55;2.65;;;;;;;21.12;57.65;100160.28;5015601;28;20129;-56
2022/06/18 06:23:43;;;;;;;9.20;2.92;;;;;;;21.15;57.81;100162.84;5015044;28;20072;-55
2022/06/18 06:26:31;;;;;;;3.22;2.08;;;;;;;21.17;57.85;100161.03;5015992;28;20588;-56
2022/06/18 06:29:15;;;;;;;4.75;2.63;;;;;;;21.19;57.74;100156.59;5015017;28;20570;-57
2022/06/18 06:31:59;;;;;;;5.07;2.95;;;;;;;21.20;57.70;100162.72;5015645;28;20095;-57
2022/06/18 06:34:43;;;;;;;7.95;3.15;;;;;;;21.22;57.66;100156.53;5015980;28;20421;-56
2022/06/18 06:37:27;;;;;;;5.45;2.70;;;;;;;21.23;57.79;100158.25;5015922;28;20037;-57
2022/06/18 06:40:13;;;;;;;;;;;;;;;21.23;57.60;100158.25;5016435;28;20092;-56
2022/06/18 06:42:58;;;;;;;6.00;2.80;;;;;;;21.24;57.80;100165.25;5015456;28;20379;-56
2022/06/18 06:45:43;;;;;;;6.40;3.00;;;;;;;21.26;57.97;100157.28;5015676;28;20081;-56
2022/06/18 06:48:27;;;;;;;12.27;3.50;;;;;;;21.27;57.74;100161.66;5014964;28;20096;-57
2022/06/18 06:51:18;;;;;;;7.60;3.55;;;;;;;21.28;57.86;100161.59;5014639;28;20040;-57
2022/06/18 06:54:02;;;;;;;8.25;3.85;;;;;;;21.30;57.91;100175.63;5014831;28;20060;-57
2022/06/18 06:59:49;;;;;;;9.63;3.90;;;;;;;21.34;57.96;100165.00;5015883;28;20172;-57
2022/06/18 07:02:34;;;;;;;6.50;3.45;;;;;;;21.35;57.99;100167.56;5015627;28;20056;-57
2022/06/18 07:05:17;;;;;;;11.05;4.15;;;;;;;21.37;58.07;100171.03;5014659;28;20129;-56
2022/06/18 07:08:01;;;;;;;10.43;3.60;;;;;;;21.39;58.05;100168.38;5015255;28;20141;-56
2022/06/18 07:10:48;;;;;;;7.15;3.53;;;;;;;21.41;57.99;100166.56;5015486;28;20049;-57
2022/06/18 07:13:32;;;;;;;10.35;3.22;;;;;;;21.43;58.22;100167.38;5014557;28;20666;-57
2022/06/18 07:16:17;;;;;;;9.38;3.65;;;;;;;21.43;58.18;100155.06;5015347;28;20172;-56
2022/06/18 07:19:01;;;;;;;8.27;3.65;;;;;;;21.44;58.14;100154.16;5014191;28;20117;-57
2022/06/18 07:21:45;;;;;;;9.38;4.13;;;;;;;21.46;58.44;100154.13;5015153;28;20065;-57
2022/06/18 07:24:30;;;;;;;7.07;3.58;;;;;;;21.48;58.39;100156.72;5013912;28;20053;-57
2022/06/18 07:27:14;;;;;;;8.80;3.63;;;;;;;21.51;58.30;100146.06;5015039;28;20041;-55
2022/06/18 07:29:57;;;;;;;8.45;3.70;;;;;;;21.53;58.43;100158.31;5014758;28;20044;-55
2022/06/18 07:32:46;;;;;;;6.15;2.92;;;;;;;21.55;58.22;100153.88;5014776;28;20516;-56
2022/06/18 07:35:32;;;;;;;5.80;2.72;;;;;;;21.56;58.60;100147.69;5014166;28;20505;-55
2022/06/18 07:38:16;;;;;;;9.00;3.00;;;;;;;21.55;58.35;100143.34;5013724;28;20045;-57
2022/06/18 07:41:01;;;;;;;8.13;3.08;;;;;;;21.56;58.24;100144.19;5013674;28;20053;-57
2022/06/18 07:43:49;;;;;;;5.05;2.75;;;;;;;21.56;58.30;100142.44;5014008;28;20049;-57
2022/06/18 07:46:33;;;;;;;7.25;2.83;;;;;;;21.58;58.33;100150.28;5014257;28;20464;-57
2022/06/18 07:49:17;;;;;;;6.80;3.03;;;;;;;21.58;58.25;100148.50;5013855;28;20405;-56
2022/06/18 07:52:01;;;;;;;7.95;2.83;;;;;;;21.58;58.44;100145.84;5014680;28;20045;-57
2022/06/18 07:54:45;;;;;;;8.00;3.53;;;;;;;21.59;58.28;100141.47;5014169;28;20057;-57
2022/06/18 07:57:29;;;;;;;8.27;2.92;;;;;;;21.60;58.40;100141.44;5014974;28;20117;-57
2022/06/18 08:00:16;;;;;;;9.60;3.45;;;;;;;21.63;58.50;100134.34;5014791;28;20057;-56
2022/06/18 08:03:01;;;;;;;6.38;3.03;;;;;;;21.63;58.49;100134.34;5013930;28;20056;-57
2022/06/18 08:05:46;;;;;;;9.32;3.47;;;;;;;21.64;58.41;100136.09;5013169;28;20103;-57
2022/06/18 08:08:30;;;;;;;5.60;2.63;;;;;;;21.64;58.57;100134.34;5013249;28;20103;-57
2022/06/18 08:11:17;;;;;;;9.60;2.45;;;;;;;21.65;58.49;100124.63;5014555;28;20134;-57
2022/06/18 08:14:01;;;;;;;4.25;2.95;;;;;;;21.66;58.53;100124.56;5013496;28;20063;-57
2022/06/18 08:16:45;;;;;;;8.25;3.33;;;;;;;21.68;58.65;100127.19;5014162;28;20041;-57
2022/06/18 08:19:29;;;;;;;5.72;2.90;;;;;;;21.70;58.63;100120.09;5014024;28;20057;-57
2022/06/18 08:22:13;;;;;;;6.40;2.88;;;;;;;21.71;58.67;100114.78;5014065;28;20591;-57
2022/06/18 08:24:57;;;;;;;3.28;2.50;;;;;;;21.72;58.73;100119.13;5014412;28;20083;-56
2022/06/18 08:27:42;;;;;;;6.75;2.63;;;;;;;21.73;58.89;100109.44;5013945;28;20179;-56
2022/06/18 08:30:26;;;;;;;7.40;3.28;;;;;;;21.74;58.77;100113.81;5013376;28;20125;-56
2022/06/18 08:33:11;;;;;;;4.28;2.90;;;;;;;21.76;58.93;100114.63;5013943;28;20052;-56
2022/06/18 08:35:57;;;;;;;7.22;3.17;;;;;;;21.78;58.97;100115.44;5013960;28;20465;-56
2022/06/18 08:38:43;;;;;;;4.88;2.75;;;;;;;21.80;58.95;100112.78;5012666;28;20424;-57
2022/06/18 08:41:45;;;;;;;5.63;3.00;;;;;;;21.81;58.96;100104.81;5013395;28;20536;-57
2022/06/18 08:44:41;;;;;;;8.55;2.97;;;;;;;21.84;58.94;100104.72;5012689;28;20053;-57
2022/06/18 08:47:45;;;;;;;7.68;3.22;;;;;;;21.86;58.79;100099.41;5013279;28;20563;-56
2022/06/18 08:50:34;;;;;;;5.55;2.92;;;;;;;21.88;58.89;100093.16;5013096;28;20501;-56
2022/06/18 08:53:44;;;;;;;5.97;3.33;;;;;;;21.93;59.04;100086.88;5013100;28;20560;-56
2022/06/18 08:56:42;;;;;;;4.88;2.72;;;;;;;21.96;59.06;100092.06;5013443;28;20397;-56
2022/06/18 08:59:42;;;;;;;5.63;2.78;;;;;;;21.98;59.15;100091.09;5012524;28;20045;-56
2022/06/18 09:02:45;;;;;;;10.18;3.03;;;;;;;22.01;59.11;100087.53;5012637;28;20112;-55
2022/06/18 09:05:51;;;;;;;8.10;3.17;;;;;;;22.04;59.24;100083.00;5013503;28;20065;-56
2022/06/18 09:08:53;;;;;;;6.05;2.55;;;;;;;22.06;59.09;100085.59;5013092;28;20112;-56
2022/06/18 09:12:28;;;;;;;4.13;2.70;;;;;;;22.09;59.14;100089.94;5012566;28;20092;-56
2022/06/18 09:15:17;;;;;;;;;;;;;;;22.10;59.12;100081.94;4934767;29;20051;-55
2022/06/18 09:18:09;;;;;;;3.55;2.90;;;;;;;22.10;59.20;100076.69;5012169;28;19925;-57
2022/06/18 09:20:56;;;;;;;7.82;2.90;;;;;;;22.13;59.30;100075.72;5012719;28;20088;-58
2022/06/18 09:23:52;;;;;;;8.25;3.05;;;;;;;22.16;59.34;100079.13;5012634;28;20044;-57
2022/06/18 09:26:42;;;;;;;8.00;2.83;;;;;;;22.17;59.27;100083.50;5013665;28;20060;-57
2022/06/18 09:29:44;;;;;;;13.00;4.15;;;;;;;22.21;59.40;100078.97;5012185;28;20104;-56
2022/06/18 09:32:52;;;;;;;7.05;3.15;;;;;;;22.23;59.41;100078.91;5012542;28;20057;-55
2022/06/18 09:35:44;;;;;;;8.00;3.97;;;;;;;22.23;59.42;100071.00;5012145;28;20521;-61
2022/06/18 09:38:33;;;;;;;12.35;3.53;;;;;;;22.25;59.42;100077.09;5013361;28;20045;-56
2022/06/18 09:41:30;;;;;;;6.93;3.30;;;;;;;22.26;59.33;100068.28;5012060;28;20128;-55
2022/06/18 09:44:26;;;;;;;7.68;4.22;;;;;;;22.28;59.45;100066.44;5012375;28;20065;-56
2022/06/18 09:47:17;;;;;;;10.02;4.18;;;;;;;22.30;59.62;100068.13;5012045;28;20157;-57
2022/06/18 09:50:01;;;;;;;5.55;3.17;;;;;;;22.31;59.72;100069.84;5012517;28;20056;-56
2022/06/18 09:52:56;;;;;;;5.72;3.40;;;;;;;22.34;59.53;100059.19;5012973;28;20672;-57
2022/06/18 09:55:51;;;;;;;8.18;3.30;;;;;;;22.38;59.59;100053.81;5012314;28;20116;-57
2022/06/18 09:58:42;;;;;;;3.85;3.42;;;;;;;22.41;59.59;100059.00;5012371;28;20104;-57
2022/06/18 10:01:34;;;;;;;11.75;4.25;;;;;;;22.41;59.77;100053.72;5011977;28;20096;-56
2022/06/18 10:07:33;;;;;;;4.60;3.42;;;;;;;22.47;59.72;100048.25;5015018;28;20045;-56
2022/06/18 10:10:21;;;;;;;8.55;3.42;;;;;;;22.50;60.10;100038.44;5015600;28;20132;-56
2022/06/18 10:13:13;;;;;;;8.82;4.00;;;;;;;22.54;59.86;100043.63;5015249;28;20056;-57
2022/06/18 10:16:02;;;;;;;5.65;3.00;;;;;;;22.56;59.95;100044.44;5015405;28;20049;-57
2022/06/18 10:19:09;;;;;;;10.40;3.60;;;;;;;22.58;59.70;100040.81;5015518;28;20119;-55
2022/06/18 10:22:07;;;;;;;5.38;3.53;;;;;;;22.60;59.67;100043.44;5016038;28;20084;-57
2022/06/18 10:25:03;;;;;;;9.25;3.10;;;;;;;22.61;59.60;100037.25;5014970;28;20056;-56
2022/06/18 10:28:06;;;;;;;12.18;3.50;;;;;;;22.61;59.80;100037.25;5015972;28;20053;-57
2022/06/18 10:31:05;;;;;;;8.52;2.97;;;;;;;22.62;59.51;100031.91;5015432;28;20141;-57
2022/06/18 10:34:24;;;;;;;9.77;3.55;;;;;;;22.62;59.71;100023.97;5014875;28;20052;-57
2022/06/18 10:38:10;;;;;;;7.05;3.20;;;;;;;22.64;59.51;100026.56;4990408;28;20052;-55
2022/06/18 10:41:18;;;;;;;10.15;3.38;;;;;;;22.66;59.47;100027.34;4922786;29;20154;-56
2022/06/18 10:44:14;;;;;;;5.50;3.03;;;;;;;22.69;59.74;100021.13;4925018;28;20055;-57
2022/06/18 10:47:03;;;;;;;3.95;2.92;;;;;;;22.70;59.24;100013.13;5014791;28;20416;-57
2022/06/18 10:49:59;;;;;;;6.07;3.17;;;;;;;22.71;59.22;100024.59;5015235;28;20393;-57
2022/06/18 10:52:43;;;;;;;11.43;3.50;;;;;;;22.72;59.44;100027.16;5015761;28;20052;-57
2022/06/18 10:55:29;;;;;;;4.97;3.63;;;;;;;22.73;59.66;100028.88;5015027;28;20409;-57
2022/06/18 10:58:15;;;;;;;6.22;3.20;;;;;;;22.74;59.40;100013.88;5014721;28;20556;-57
2022/06/18 11:01:13;;;;;;;6.45;2.97;;;;;;;22.76;59.43;100012.06;5014953;28;20045;-56
2022/06/18 11:04:00;;;;;;;8.60;3.53;;;;;;;22.79;59.22;100014.59;5014531;28;20119;-57
2022/06/18 11:06:49;;;;;;;5.55;2.95;;;;;;;22.80;59.26;100009.28;5014619;28;20185;-57
2022/06/18 11:09:50;;;;;;;3.17;2.85;;;;;;;22.83;59.15;100013.59;5015198;28;20124;-56
2022/06/18 11:12:38;;;;;;;13.32;3.15;;;;;;;22.85;59.06;100006.47;5014691;28;20402;-55
2022/06/18 11:15:28;;;;;;;5.07;3.22;;;;;;;22.85;58.92;99998.53;5014299;28;20476;-55
2022/06/18 11:18:20;;;;;;;7.43;3.28;;;;;;;22.86;59.18;99994.97;5014676;28;20116;-55
2022/06/18 11:21:05;;;;;;;10.55;3.03;;;;;;;22.90;59.00;99998.38;5014245;28;20115;-57
2022/06/18 11:23:57;;;;;;;4.82;3.22;;;;;;;22.91;59.21;99985.09;5014303;28;20092;-57
2022/06/18 11:26:51;;;;;;;6.55;3.92;;;;;;;22.94;59.26;99994.72;5014844;28;20515;-57
2022/06/18 11:29:40;;;;;;;;;;;;;;;22.96;59.08;99982.31;5014649;28;20053;-57
2022/06/18 11:32:32;;;;;;;7.00;3.22;;;;;;;22.98;59.29;99984.88;5014333;28;19921;-57
2022/06/18 11:35:30;;;;;;;4.97;2.80;;;;;;;23.00;58.96;99975.97;5014644;28;20061;-56
2022/06/18 11:38:28;;;;;;;8.02;3.45;;;;;;;23.01;58.95;99967.13;5013961;28;20456;-56
2022/06/18 11:41:21;;;;;;;8.70;3.78;;;;;;;23.02;58.96;99962.72;5014292;28;20060;-55
2022/06/18 11:44:15;;;;;;;6.70;3.05;;;;;;;23.03;58.80;99952.06;5013945;28;20060;-56
2022/06/18 11:47:03;;;;;;;6.55;3.60;;;;;;;23.04;58.92;99955.59;5013565;28;20053;-55
2022/06/18 11:50:12;;;;;;;7.90;3.10;;;;;;;23.06;58.64;99951.97;5015039;28;20076;-56
2022/06/18 11:53:05;;;;;;;5.75;3.00;;;;;;;23.07;58.89;99945.75;5013521;28;20083;-56
2022/06/18 11:55:56;;;;;;;6.33;3.30;;;;;;;23.10;59.03;99940.38;5013177;28;20737;-58
2022/06/18 11:59:02;;;;;;;9.18;3.60;;;;;;;23.16;58.54;99938.41;5013636;28;20280;-57
2022/06/18 12:01:57;;;;;;;7.35;3.67;;;;;;;23.18;58.87;99937.44;5013193;28;20107;-61
2022/06/18 12:04:49;;;;;;;7.90;3.42;;;;;;;23.21;58.74;99933.84;5014402;28;20100;-56
2022/06/18 12:07:56;;;;;;;8.88;4.03;;;;;;;23.24;58.85;99931.09;5013816;28;20056;-55
2022/06/18 12:10:49;;;;;;;9.23;3.88;;;;;;;23.26;58.87;99929.25;5014061;28;20596;-57
2022/06/18 12:13:48;;;;;;;5.97;3.40;;;;;;;23.27;58.66;99923.03;5013302;28;20057;-56
2022/06/18 12:16:47;;;;;;;22.88;3.78;;;;;;;23.29;58.86;99918.53;5013962;28;20080;-56
2022/06/18 12:19:47;;;;;;;5.10;3.63;;;;;;;23.32;58.58;99917.56;5013013;28;20053;-56
2022/06/18 12:23:05;;;;;;;10.70;3.72;;;;;;;23.35;58.60;99913.00;5013030;28;20065;-56
2022/06/18 12:26:05;;;;;;;4.90;3.15;;;;;;;23.36;58.67;99911.22;5013398;28;20056;-57
2022/06/18 12:29:19;;;;;;;7.15;3.72;;;;;;;23.36;58.49;99904.16;5013158;28;20099;-56
2022/06/18 12:32:15;;;;;;;6.83;3.23;;;;;;;23.37;58.45;99897.97;5014021;28;20563;-57
2022/06/18 12:35:10;;;;;;;7.80;3.33;;;;;;;23.40;58.39;99897.84;5012857;28;20081;-56
2022/06/18 12:38:02;;;;;;;4.88;3.00;;;;;;;23.41;58.53;99882.81;5013454;28;20041;-56
2022/06/18 12:41:02;;;;;;;15.90;3.35;;;;;;;23.42;58.37;99882.78;4999137;28;20172;-56
2022/06/18 12:44:07;;;;;;;5.18;3.38;;;;;;;23.43;58.37;99883.63;5012438;28;20099;-56
2022/06/18 12:47:23;;;;;;;9.60;3.00;;;;;;;23.44;58.35;99885.34;5013042;28;20130;-56
2022/06/18 12:50:26;;;;;;;7.88;3.28;;;;;;;23.46;58.33;99875.56;5013326;28;20045;-58
2022/06/18 12:53:43;;;;;;;11.30;3.83;;;;;;;23.48;58.29;99872.84;5013437;28;20049;-57
2022/06/18 12:57:14;;;;;;;9.15;3.40;;;;;;;23.48;58.45;99864.91;5012995;28;20614;-56
2022/06/18 13:00:20;;;;;;;9.52;3.15;;;;;;;23.51;58.52;99859.50;5013940;28;20425;-56
2022/06/18 13:03:42;;;;;;;9.95;3.08;;;;;;;23.56;58.39;99849.63;5013519;28;20500;-56
2022/06/18 13:06:44;;;;;;;5.90;3.10;;;;;;;23.58;58.07;99850.44;5013855;28;20131;-56
2022/06/18 13:09:57;;;;;;;12.32;3.47;;;;;;;23.61;58.26;99846.78;5013395;28;20056;-57
2022/06/18 13:13:04;;;;;;;5.05;3.25;;;;;;;23.62;58.39;99838.78;5013543;28;20045;-57
2022/06/18 13:15:59;;;;;;;8.68;3.50;;;;;;;23.66;58.33;99839.53;5012653;28;20049;-57
2022/06/18 13:18:59;;;;;;;9.43;3.22;;;;;;;23.67;58.41;99836.81;5013371;28;20056;-56
2022/06/18 13:21:45;;;;;;;11.75;3.15;;;;;;;23.68;58.43;99830.59;5012594;28;20164;-56
2022/06/18 13:28:30;;;;;;;10.55;3.17;;;;;;;23.73;58.23;99830.38;5013389;28;20092;-56
2022/06/18 13:31:32;;;;;;;5.90;3.47;;;;;;;23.78;58.26;99819.59;5012481;28;20538;-57
2022/06/18 13:34:31;;;;;;;6.50;3.45;;;;;;;23.77;58.12;99812.59;4975222;28;20506;-57